Impacts TAF Board
For situational awareness. Not to be used for flight planning purposes.
IDs:

KIAH - Houston/Bush Intl, TX, US

Issued at 1547 UTC 01 Mar 2021
Updated at 1706 UTC 01 Mar 2021
Potential Impact None Slight Moderate High
Time1653Z 01/18Z 01/19Z 01/20Z 01/21Z 01/22Z 01/23Z 02/00Z 02/01Z 02/02Z 02/03Z 02/04Z 02/05Z 02/06Z>>
Type OBS PRVL PRVL PRVL PRVL PRVL PRVL PRVL PRVL PRVL PRVL PRVL PRVL PRVL
VIS 10 >6 >6 >6 >6 5 5 5 5 5 5 5 5 6
CIG 13 7 7 7 7 7 7 7 7 7 7 7 7 7
Cover OVC OVC OVC OVC OVC OVC OVC OVC OVC OVC OVC OVC OVC OVC
FltCat MVFR IFR IFR IFR IFR IFR IFR IFR IFR IFR IFR IFR IFR IFR
WX -- -RA VCSH -RA VCSH -RA VCSH -RA VCSH SHRA VCTS SHRA VCTS SHRA VCTS SHRA VCTS SHRA VCTS -SHRA -SHRA -SHRA BR VCSH
WDir 20 20 20 20 20 10 10 10 10 10 10 10 10 350
WSpd 18 14 14 14 14 11 11 11 11 11 10 10 10 12
WGst 24 -- -- -- -- -- -- -- -- -- -- -- -- --
Raw TAF
KIAH 011547Z 0116/0218 36016G22KT P6SM VCSH OVC008
  FM011700 02014KT P6SM -RA VCSH OVC007
  FM012200 01011KT 5SM SHRA VCTS OVC007CB
  FM020300 01010KT 5SM -SHRA OVC007
  FM020600 35012KT 6SM BR VCSH OVC007
  FM021300 36010G20KT P6SM BKN008
  FM021700 35011KT P6SM BKN015


Raw METAR
KIAH 011653Z 02018G24KT 10SM BKN013 OVC027 16/12 A3006 RMK AO2 PK WND 01026/1616 SLP180 T01610122
KIAH 011553Z 36016KT 10SM OVC010 16/13 A3006 RMK AO2 DZE23 SLP179 P0000 T01560128
KIAH 011524Z 36016G22KT 10SM OVC008 14/13 A3006 RMK AO2 DZE23 P0000 T01440128
KIAH 011453Z 33012KT 4SM -DZ BR OVC005 15/13 A3004 RMK AO2 RAE08DZB52 SLP170 P0000 60004 T01500133 53042

METAR Board
Radar Display
Forecast Discussion
For situational awareness. Not to be used for flight planning purposes.